createdAt,value
2018-06-14T00:02:12.791Z,19.01
2018-06-14T00:04:43.619Z,19.47
2018-06-14T00:07:14.332Z,19.81
2018-06-14T00:09:44.820Z,19.97
2018-06-14T00:12:15.561Z,19.91
2018-06-14T00:14:46.015Z,20.03
2018-06-14T00:17:16.482Z,19.70
2018-06-14T00:19:46.882Z,19.80
2018-06-14T00:22:18.281Z,19.95
2018-06-14T00:24:48.509Z,20.09
2018-06-14T00:27:18.238Z,20.15
2018-06-14T00:29:47.942Z,20.15
2018-06-14T00:32:17.877Z,19.65
2018-06-14T00:34:47.675Z,19.38
2018-06-14T00:37:17.455Z,19.20
2018-06-14T00:39:47.115Z,19.62
2018-06-14T00:42:16.831Z,19.41
2018-06-14T00:44:46.572Z,19.24
2018-06-14T00:47:16.374Z,19.65
2018-06-14T00:49:46.201Z,19.80
2018-06-14T00:52:15.849Z,19.88
2018-06-14T00:54:45.657Z,19.78
2018-06-14T00:57:25.405Z,19.32
2018-06-14T00:59:55.650Z,19.87
2018-06-14T01:02:27.341Z,19.58
2018-06-14T01:04:57.966Z,19.78
2018-06-14T01:07:28.445Z,19.77
2018-06-14T01:09:59.233Z,19.62
2018-06-14T01:12:30.388Z,19.47
2018-06-14T01:15:00.777Z,19.85
2018-06-14T01:17:31.159Z,19.91
2018-06-14T01:20:01.530Z,19.19
2018-06-14T01:22:33.248Z,19.56
2018-06-14T01:25:03.813Z,19.99
2018-06-14T01:27:34.651Z,19.84
2018-06-14T01:30:05.262Z,19.74
2018-06-14T01:32:35.577Z,19.80
2018-06-14T01:35:06.147Z,19.75
2018-06-14T01:37:46.854Z,19.32
2018-06-14T01:40:17.264Z,19.36
2018-06-14T01:42:48.033Z,19.54
2018-06-14T01:45:18.366Z,19.40
2018-06-14T01:47:48.573Z,19.78
2018-06-14T01:50:18.897Z,19.92
2018-06-14T01:52:49.689Z,19.78
2018-06-14T01:55:20.589Z,20.01
2018-06-14T01:57:51.233Z,20.06
2018-06-14T02:00:21.968Z,20.22
2018-06-14T02:02:53.352Z,19.58
2018-06-14T02:05:23.822Z,19.81
2018-06-14T02:07:54.230Z,18.68
2018-06-14T02:10:24.568Z,18.32
2018-06-14T02:12:54.874Z,18.77
2018-06-14T02:15:24.861Z,19.13
2018-06-14T02:17:54.617Z,19.39
2018-06-14T02:20:24.309Z,19.67
2018-06-14T02:22:54.077Z,19.40
2018-06-14T02:25:24.194Z,19.43
2018-06-14T02:27:53.945Z,19.65
2018-06-14T02:30:23.706Z,19.79
2018-06-14T02:32:53.506Z,19.83
2018-06-14T02:35:23.345Z,19.65
2018-06-14T02:37:53.088Z,19.83
2018-06-14T02:40:23.531Z,19.85
2018-06-14T02:42:53.980Z,19.95
2018-06-14T02:45:24.537Z,19.88
2018-06-14T02:47:55.058Z,19.56
2018-06-14T02:50:25.673Z,19.41
2018-06-14T02:52:56.253Z,19.37
2018-06-14T02:55:26.788Z,19.75
2018-06-14T02:57:57.188Z,19.34
2018-06-14T03:00:27.393Z,19.39
2018-06-14T03:02:58.232Z,19.73
2018-06-14T03:05:28.650Z,19.83
2018-06-14T03:07:59.229Z,19.78
2018-06-14T03:10:29.863Z,19.80
2018-06-14T03:13:01.091Z,19.81
2018-06-14T03:15:31.458Z,19.59
2018-06-14T03:18:01.605Z,19.13
2018-06-14T03:20:32.110Z,19.00
2018-06-14T03:23:03.282Z,18.64
2018-06-14T03:25:33.369Z,18.59
2018-06-14T03:28:03.892Z,18.64
2018-06-14T03:30:34.356Z,19.13
2018-06-14T03:33:05.075Z,18.88
2018-06-14T03:35:35.479Z,18.69
2018-06-14T03:38:05.911Z,18.87
2018-06-14T03:40:36.151Z,19.24
2018-06-14T03:43:07.544Z,19.12
2018-06-14T03:45:38.174Z,19.05
2018-06-14T03:48:08.652Z,19.38
2018-06-14T03:50:39.250Z,19.61
2018-06-14T03:53:10.073Z,19.31
2018-06-14T03:55:41.283Z,19.36
2018-06-14T03:58:13.482Z,19.57
2018-06-14T04:00:43.923Z,19.23
2018-06-14T04:03:14.751Z,19.73
2018-06-14T04:05:45.214Z,19.93
2018-06-14T04:08:15.706Z,19.82
2018-06-14T04:10:46.139Z,19.68
2018-06-14T04:13:16.390Z,19.46
2018-06-14T04:15:46.993Z,19.85
2018-06-14T04:18:17.464Z,19.85
2018-06-14T04:20:48.034Z,19.93
2018-06-14T04:23:18.781Z,19.91
2018-06-14T04:25:49.098Z,20.30
2018-06-14T04:28:19.463Z,20.30
2018-06-14T04:30:49.992Z,20.33
2018-06-14T04:33:21.196Z,20.40
2018-06-14T04:35:51.659Z,19.94
2018-06-14T04:38:21.354Z,19.56
2018-06-14T04:40:51.130Z,19.82
2018-06-14T04:43:21.245Z,20.18
2018-06-14T04:45:51.208Z,19.94
2018-06-14T04:48:21.033Z,19.89
2018-06-14T04:50:50.795Z,19.87
2018-06-14T04:53:20.574Z,19.90
2018-06-14T04:55:50.813Z,20.27
2018-06-14T04:58:20.613Z,20.09
2018-06-14T05:00:50.464Z,20.05
2018-06-14T05:03:20.357Z,20.31
2018-06-14T05:05:50.142Z,19.97
2018-06-14T05:08:24.452Z,19.81
2018-06-14T05:10:55.464Z,20.06
2018-06-14T05:13:25.318Z,19.94
2018-06-14T05:15:55.457Z,20.13
2018-06-14T05:18:25.828Z,20.00
2018-06-14T05:20:55.560Z,20.07
2018-06-14T05:23:25.266Z,20.29
2018-06-14T05:25:55.118Z,20.38
2018-06-14T05:31:21.247Z,20.39
2018-06-14T05:33:51.900Z,20.60
2018-06-14T05:36:22.634Z,20.81
2018-06-14T05:38:53.679Z,21.15
2018-06-14T05:41:24.216Z,21.43
2018-06-14T05:43:54.939Z,21.07
2018-06-14T05:46:25.438Z,21.39
2018-06-14T05:48:56.819Z,21.34
2018-06-14T05:51:27.332Z,21.35
2018-06-14T05:53:57.940Z,21.24
2018-06-14T05:56:28.401Z,22.04
2018-06-14T05:58:58.745Z,22.23
2018-06-14T06:01:29.032Z,21.81
2018-06-14T06:03:59.221Z,21.86
2018-06-14T06:06:29.750Z,22.16
2018-06-14T06:09:00.574Z,22.52
2018-06-14T06:11:30.969Z,22.77
2018-06-14T06:14:01.359Z,23.01
2018-06-14T06:16:31.878Z,23.24
2018-06-14T06:19:03.435Z,23.04
2018-06-14T06:21:34.074Z,22.82
2018-06-14T06:24:04.816Z,23.15
2018-06-14T06:26:35.630Z,23.79
2018-06-14T06:29:06.521Z,23.62
2018-06-14T06:31:36.980Z,23.20
2018-06-14T06:34:07.705Z,23.83
2018-06-14T06:36:38.356Z,24.12
2018-06-14T06:39:11.432Z,24.70
2018-06-14T06:41:41.780Z,24.32
2018-06-14T06:44:12.272Z,24.69
2018-06-14T06:46:42.545Z,25.21
2018-06-14T06:49:13.195Z,25.16
2018-06-14T06:51:43.816Z,24.16
2018-06-14T06:54:14.357Z,24.79
2018-06-14T06:56:44.960Z,25.08
2018-06-14T06:59:15.952Z,25.50
2018-06-14T07:01:46.423Z,26.43
2018-06-14T07:04:16.916Z,26.05
2018-06-14T07:06:47.652Z,26.37
2018-06-14T07:09:18.351Z,26.10
2018-06-14T07:11:49.000Z,26.72
2018-06-14T07:14:19.560Z,26.02
2018-06-14T07:16:50.274Z,26.04
2018-06-14T07:19:21.219Z,26.65
2018-06-14T07:21:51.737Z,26.72
2018-06-14T07:24:22.348Z,26.51
2018-06-14T07:26:52.758Z,26.28
2018-06-14T07:29:24.822Z,26.33
2018-06-14T07:31:55.470Z,26.40
2018-06-14T07:34:25.768Z,26.79
2018-06-14T07:36:55.910Z,27.11
2018-06-14T07:39:26.632Z,26.90
2018-06-14T07:41:57.126Z,27.06
2018-06-14T07:44:27.374Z,26.68
2018-06-14T07:46:57.909Z,26.86
2018-06-14T07:49:28.972Z,26.97
2018-06-14T07:51:59.553Z,26.95
2018-06-14T07:54:29.931Z,26.42
2018-06-14T07:57:00.408Z,26.20
2018-06-14T07:59:31.506Z,25.57
2018-06-14T08:02:01.776Z,25.99
2018-06-14T08:04:32.407Z,25.97
2018-06-14T08:07:02.994Z,26.12
2018-06-14T08:09:33.821Z,25.84
2018-06-14T08:12:04.485Z,26.33
2018-06-14T08:14:35.049Z,26.58
2018-06-14T08:17:05.372Z,26.76
2018-06-14T08:19:36.366Z,26.97
2018-06-14T08:22:07.033Z,26.60
2018-06-14T08:24:37.501Z,27.28
2018-06-14T08:27:08.143Z,27.07
2018-06-14T08:29:43.983Z,27.53
2018-06-14T08:32:14.418Z,28.30
2018-06-14T08:34:44.857Z,28.42
2018-06-14T08:37:15.371Z,28.03
2018-06-14T08:39:48.164Z,28.38
2018-06-14T08:42:18.582Z,28.45
2018-06-14T08:44:49.306Z,28.95
2018-06-14T08:47:19.570Z,29.10
2018-06-14T08:49:51.233Z,28.56
2018-06-14T08:52:21.646Z,28.79
2018-06-14T08:54:52.285Z,28.71
2018-06-14T08:57:22.477Z,28.41
2018-06-14T08:59:53.653Z,29.64
2018-06-14T09:02:23.971Z,29.58
2018-06-14T09:04:54.142Z,29.35
2018-06-14T09:07:24.691Z,29.03
2018-06-14T09:09:55.129Z,28.47
2018-06-14T09:12:25.712Z,29.35
2018-06-14T09:14:56.422Z,29.83
2018-06-14T09:17:26.737Z,29.89
2018-06-14T09:19:57.490Z,29.62
2018-06-14T09:22:28.689Z,30.17
2018-06-14T09:24:59.084Z,29.65
2018-06-14T09:27:29.464Z,30.47
2018-06-14T09:31:03.528Z,31.11
2018-06-14T09:33:34.051Z,30.36
2018-06-14T09:36:04.469Z,31.49
2018-06-14T09:38:34.828Z,30.54
2018-06-14T09:41:05.398Z,30.74
2018-06-14T09:43:35.909Z,31.51
2018-06-14T09:46:06.343Z,31.09
2018-06-14T09:48:37.034Z,30.86
2018-06-14T09:51:07.678Z,30.97
2018-06-14T09:53:37.511Z,31.75
2018-06-14T09:56:07.329Z,31.92
2018-06-14T09:58:37.279Z,31.97
2018-06-14T10:01:06.957Z,32.01
2018-06-14T10:03:36.789Z,31.85
2018-06-14T10:06:07.172Z,31.55
2018-06-14T10:08:37.684Z,32.39
2018-06-14T10:11:08.735Z,31.44
2018-06-14T10:13:39.387Z,31.26
2018-06-14T10:16:09.922Z,31.94
2018-06-14T10:18:39.954Z,31.31
2018-06-14T10:21:09.756Z,31.80
2018-06-14T10:23:40.082Z,31.34
2018-06-14T10:26:09.994Z,32.03
2018-06-14T10:28:39.809Z,30.05
2018-06-14T10:31:10.062Z,30.04
2018-06-14T10:33:40.589Z,31.72
2018-06-14T10:36:10.945Z,31.01
2018-06-14T10:38:42.415Z,30.96
2018-06-14T10:41:13.046Z,32.04
2018-06-14T10:43:42.766Z,32.89
2018-06-14T10:46:12.503Z,32.24
2018-06-14T10:48:43.365Z,31.88
2018-06-14T10:51:13.932Z,31.38
2018-06-14T10:53:44.406Z,32.80
2018-06-14T10:56:14.993Z,31.74
2018-06-14T10:58:46.291Z,32.51
2018-06-14T11:01:16.243Z,32.16
2018-06-14T11:03:46.571Z,31.77
2018-06-14T11:06:17.300Z,31.59
2018-06-14T11:08:48.586Z,31.22
2018-06-14T11:11:18.819Z,29.48
2018-06-14T11:13:49.395Z,29.36
2018-06-14T11:16:19.977Z,30.30
2018-06-14T11:18:51.459Z,29.39
2018-06-14T11:21:21.793Z,29.31
2018-06-14T11:23:52.174Z,30.01
2018-06-14T11:26:22.530Z,30.03
2018-06-14T11:28:52.780Z,29.72
2018-06-14T11:31:23.304Z,29.89
2018-06-14T11:33:54.329Z,29.67
2018-06-14T11:36:24.765Z,30.56
2018-06-14T11:38:55.766Z,28.86
2018-06-14T11:41:26.126Z,28.53
2018-06-14T11:43:56.563Z,28.85
2018-06-14T11:46:26.840Z,29.18
2018-06-14T11:48:58.536Z,29.48
2018-06-14T11:51:29.018Z,30.18
2018-06-14T11:53:59.795Z,29.78
2018-06-14T11:56:30.162Z,29.72
2018-06-14T11:59:00.977Z,29.99
2018-06-14T12:01:31.547Z,30.30
2018-06-14T12:04:02.110Z,29.10
2018-06-14T12:06:32.071Z,29.29
2018-06-14T12:09:03.722Z,29.37
2018-06-14T12:11:34.411Z,29.84
2018-06-14T12:14:04.625Z,30.96
2018-06-14T12:16:34.911Z,32.09
2018-06-14T12:19:05.260Z,30.51
2018-06-14T12:21:35.718Z,30.83
2018-06-14T12:24:06.291Z,30.35
2018-06-14T12:26:37.022Z,30.65
2018-06-14T12:29:08.186Z,30.26
2018-06-14T12:31:39.017Z,30.51
2018-06-14T12:34:09.576Z,31.07
2018-06-14T12:36:40.184Z,30.17
2018-06-14T12:39:11.306Z,31.46
2018-06-14T12:41:41.779Z,31.28
2018-06-14T12:44:12.072Z,31.09
2018-06-14T12:46:42.557Z,30.16
2018-06-14T12:49:13.780Z,30.27
2018-06-14T12:51:44.294Z,30.39
2018-06-14T12:54:14.925Z,30.12
2018-06-14T12:56:45.470Z,29.87
2018-06-14T12:59:16.486Z,30.35
2018-06-14T13:01:46.670Z,29.65
2018-06-14T13:04:17.303Z,30.53
2018-06-14T13:06:47.758Z,29.29
2018-06-14T13:09:19.081Z,29.39
2018-06-14T13:11:49.949Z,29.56
2018-06-14T13:14:20.605Z,30.32
2018-06-14T13:16:51.093Z,30.34
2018-06-14T13:19:22.258Z,28.85
2018-06-14T13:21:52.657Z,29.56
2018-06-14T13:24:22.928Z,28.63
2018-06-14T13:26:53.349Z,28.56
2018-06-14T13:29:24.161Z,29.50
2018-06-14T13:31:55.149Z,29.84
2018-06-14T13:34:25.381Z,30.09
2018-06-14T13:36:55.827Z,30.48
2018-06-14T13:39:26.742Z,29.90
2018-06-14T13:41:56.469Z,29.52
2018-06-14T13:44:27.233Z,30.21
2018-06-14T13:46:57.363Z,30.15
2018-06-14T13:49:28.150Z,30.75
2018-06-14T13:51:58.864Z,31.18
2018-06-14T13:54:29.246Z,31.44
2018-06-14T13:56:59.540Z,30.81
2018-06-14T13:59:29.947Z,29.97
2018-06-14T14:02:00.432Z,29.61
2018-06-14T14:04:30.736Z,29.85
2018-06-14T14:07:05.194Z,30.01
2018-06-14T14:09:36.811Z,30.13
2018-06-14T14:12:07.082Z,30.50
2018-06-14T14:14:37.650Z,29.53
2018-06-14T14:17:08.365Z,29.68
2018-06-14T14:19:39.633Z,28.75
2018-06-14T14:22:09.916Z,29.42
2018-06-14T14:24:40.298Z,29.92
2018-06-14T14:27:10.519Z,28.51
2018-06-14T14:29:42.240Z,27.60
2018-06-14T14:32:13.100Z,24.86
2018-06-14T14:34:43.697Z,26.47
2018-06-14T14:37:14.272Z,26.30
2018-06-14T14:39:44.741Z,25.77
2018-06-14T14:42:15.320Z,25.98
2018-06-14T14:44:45.744Z,25.80
2018-06-14T14:47:16.262Z,25.81
2018-06-14T14:49:46.992Z,25.44
2018-06-14T14:52:17.389Z,25.47
2018-06-14T14:54:47.936Z,25.21
2018-06-14T14:57:18.565Z,25.44
2018-06-14T14:59:49.634Z,25.56
2018-06-14T15:02:19.863Z,26.20
2018-06-14T15:04:50.673Z,26.23
2018-06-14T15:07:21.220Z,26.06
2018-06-14T15:09:52.271Z,25.96
2018-06-14T15:12:22.118Z,25.79
2018-06-14T15:14:51.801Z,25.51
2018-06-14T15:17:21.475Z,24.70
2018-06-14T15:19:51.852Z,24.71
2018-06-14T15:22:21.915Z,24.92
2018-06-14T15:24:52.462Z,24.91
2018-06-14T15:27:22.292Z,24.84
2018-06-14T15:29:52.825Z,24.84
2018-06-14T15:32:22.878Z,24.93
2018-06-14T15:34:52.686Z,24.94
2018-06-14T15:37:22.518Z,25.30
2018-06-14T15:39:52.309Z,25.38
2018-06-14T15:42:22.078Z,24.82
2018-06-14T15:44:51.672Z,24.31
2018-06-14T15:47:21.341Z,24.16
2018-06-14T15:49:51.092Z,24.45
2018-06-14T15:52:20.722Z,24.58
2018-06-14T15:55:00.975Z,24.67
2018-06-14T15:57:30.790Z,24.01
2018-06-14T16:00:01.733Z,24.16
2018-06-14T16:02:31.402Z,23.88
2018-06-14T16:05:01.135Z,24.12
2018-06-14T16:07:30.819Z,23.82
2018-06-14T16:10:00.629Z,23.54
2018-06-14T16:12:30.240Z,23.81
2018-06-14T16:15:00.079Z,24.41
2018-06-14T16:17:29.972Z,24.75
2018-06-14T16:19:59.776Z,23.40
2018-06-14T16:22:29.543Z,23.24
2018-06-14T16:24:59.270Z,23.31
2018-06-14T16:27:29.276Z,23.24
2018-06-14T16:29:59.005Z,23.05
2018-06-14T16:32:29.108Z,23.21
2018-06-14T16:34:58.802Z,22.95
2018-06-14T16:37:28.562Z,23.31
2018-06-14T16:39:58.205Z,23.75
2018-06-14T16:42:27.985Z,23.71
2018-06-14T16:44:57.749Z,23.08
2018-06-14T16:47:27.418Z,23.29
2018-06-14T16:49:57.045Z,23.63
2018-06-14T16:52:26.750Z,24.06
2018-06-14T16:54:56.582Z,23.65
2018-06-14T16:57:26.451Z,23.89
2018-06-14T16:59:56.188Z,23.31
2018-06-14T17:02:25.983Z,23.37
2018-06-14T17:04:55.637Z,23.64
2018-06-14T17:07:25.577Z,23.31
2018-06-14T17:09:55.378Z,23.33
2018-06-14T17:12:25.113Z,23.15
2018-06-14T17:14:54.964Z,23.15
2018-06-14T17:17:24.795Z,22.66
2018-06-14T17:19:54.521Z,22.17
2018-06-14T17:22:24.792Z,22.16
2018-06-14T17:24:55.282Z,22.60
2018-06-14T17:27:25.515Z,22.97
2018-06-14T17:29:57.157Z,23.17
2018-06-14T17:32:27.859Z,22.58
2018-06-14T17:34:58.862Z,22.59
2018-06-14T17:37:29.557Z,22.85
2018-06-14T17:40:00.343Z,22.46
2018-06-14T17:42:30.672Z,22.83
2018-06-14T17:45:01.103Z,23.10
2018-06-14T17:47:31.796Z,23.13
2018-06-14T17:50:02.277Z,23.06
2018-06-14T17:52:32.930Z,22.84
2018-06-14T17:55:03.672Z,22.86
2018-06-14T17:57:34.105Z,22.67
2018-06-14T18:00:05.769Z,22.79
2018-06-14T18:02:36.575Z,22.62
2018-06-14T18:05:07.486Z,22.63
2018-06-14T18:07:38.234Z,22.61
2018-06-14T18:10:08.784Z,22.50
2018-06-14T18:12:39.158Z,22.72
2018-06-14T18:15:09.671Z,22.77
2018-06-14T18:17:40.107Z,23.03
2018-06-14T18:20:11.887Z,22.43
2018-06-14T18:22:42.506Z,22.91
2018-06-14T18:25:13.246Z,22.90
2018-06-14T18:27:43.857Z,22.21
2018-06-14T18:30:15.571Z,21.45
2018-06-14T18:32:46.024Z,21.36
2018-06-14T18:35:17.057Z,21.12
2018-06-14T18:37:47.962Z,21.71
2018-06-14T18:40:18.774Z,22.22
2018-06-14T18:42:49.460Z,22.45
2018-06-14T18:45:19.803Z,21.87
2018-06-14T18:47:50.293Z,20.99
2018-06-14T18:50:21.080Z,19.05
2018-06-14T18:52:52.329Z,20.48
2018-06-14T18:55:22.966Z,20.18
2018-06-14T18:57:53.410Z,20.43
2018-06-14T19:00:24.216Z,20.71
2018-06-14T19:02:54.953Z,21.05
2018-06-14T19:05:25.744Z,21.32
2018-06-14T19:07:56.370Z,21.00
2018-06-14T19:10:26.861Z,20.86
2018-06-14T19:12:57.459Z,21.18
2018-06-14T19:15:27.902Z,20.73
2018-06-14T19:17:58.488Z,20.40
2018-06-14T19:20:29.497Z,20.32
2018-06-14T19:22:59.881Z,20.31
2018-06-14T19:25:30.463Z,20.07
2018-06-14T19:28:01.246Z,19.97
2018-06-14T19:30:31.698Z,19.91
2018-06-14T19:33:02.126Z,19.69
2018-06-14T19:35:32.851Z,19.61
2018-06-14T19:39:09.327Z,19.76
2018-06-14T19:41:39.983Z,19.78
2018-06-14T19:44:10.458Z,19.67
2018-06-14T19:46:40.619Z,20.18
2018-06-14T19:49:11.246Z,20.26
2018-06-14T19:51:42.070Z,20.27
2018-06-14T19:54:12.648Z,20.09
2018-06-14T19:56:43.698Z,20.14
2018-06-14T19:59:14.060Z,20.21
2018-06-14T20:01:44.477Z,20.49
2018-06-14T20:04:15.059Z,20.45
2018-06-14T20:06:46.289Z,20.35
2018-06-14T20:09:17.133Z,20.21
2018-06-14T20:11:47.490Z,20.08
2018-06-14T20:14:18.957Z,20.04
2018-06-14T20:16:49.761Z,19.98
2018-06-14T20:19:20.358Z,20.05
2018-06-14T20:21:50.854Z,20.05
2018-06-14T20:24:21.717Z,20.03
2018-06-14T20:26:53.269Z,20.05
2018-06-14T20:29:23.902Z,19.81
2018-06-14T20:31:53.662Z,19.95
2018-06-14T20:34:23.213Z,19.85
2018-06-14T20:36:53.715Z,19.76
2018-06-14T20:39:23.580Z,19.68
2018-06-14T20:41:53.361Z,20.15
2018-06-14T20:44:23.165Z,20.42
2018-06-14T20:46:52.898Z,20.08
2018-06-14T20:49:22.618Z,19.96
2018-06-14T20:51:52.443Z,20.05
2018-06-14T20:54:22.134Z,20.70
2018-06-14T20:56:51.813Z,20.97
2018-06-14T20:59:21.533Z,20.31
2018-06-14T21:01:51.332Z,19.84
2018-06-14T21:04:21.046Z,19.75
2018-06-14T21:06:50.899Z,20.22
2018-06-14T21:09:20.684Z,19.70
2018-06-14T21:11:50.456Z,19.72
2018-06-14T21:14:20.247Z,20.16
2018-06-14T21:16:49.932Z,20.18
2018-06-14T21:19:19.711Z,20.65
2018-06-14T21:21:49.479Z,20.85
2018-06-14T21:24:19.131Z,21.00
2018-06-14T21:26:48.917Z,20.81
2018-06-14T21:29:18.630Z,20.48
2018-06-14T21:31:48.369Z,20.79
2018-06-14T21:34:18.120Z,20.89
2018-06-14T21:36:48.406Z,20.37
2018-06-14T21:39:18.393Z,20.59
2018-06-14T21:41:48.226Z,20.73
2018-06-14T21:44:18.021Z,20.85
2018-06-14T21:46:47.841Z,20.95
2018-06-14T21:49:17.559Z,20.44
2018-06-14T21:51:47.273Z,20.39
2018-06-14T21:54:17.082Z,20.58
2018-06-14T21:56:46.939Z,20.60
2018-06-14T21:59:16.689Z,20.73
2018-06-14T22:01:46.470Z,20.48
2018-06-14T22:04:16.235Z,19.70
2018-06-14T22:06:45.944Z,19.41
2018-06-14T22:09:15.652Z,19.65
2018-06-14T22:11:45.414Z,19.80
2018-06-14T22:14:15.183Z,20.02
2018-06-14T22:16:44.850Z,20.17
2018-06-14T22:19:14.557Z,19.99
2018-06-14T22:21:44.235Z,19.71
2018-06-14T22:24:13.682Z,19.50
2018-06-14T22:26:43.412Z,20.00
2018-06-14T22:29:13.135Z,20.22
2018-06-14T22:31:42.691Z,20.30
2018-06-14T22:34:22.948Z,20.10
2018-06-14T22:36:52.768Z,20.01
2018-06-14T22:39:22.902Z,20.31
2018-06-14T22:41:52.725Z,20.20
2018-06-14T22:44:22.513Z,20.41
2018-06-14T22:46:52.323Z,19.54
2018-06-14T22:49:22.068Z,19.91
2018-06-14T22:53:01.554Z,20.10
2018-06-14T22:55:31.322Z,20.31
2018-06-14T22:58:00.892Z,20.37
2018-06-14T23:01:44.293Z,20.23
2018-06-14T23:04:20.309Z,20.02
2018-06-14T23:06:50.235Z,20.08
2018-06-14T23:10:32.702Z,19.96
2018-06-14T23:13:02.796Z,19.99
2018-06-14T23:15:33.170Z,20.08
2018-06-14T23:18:03.590Z,20.15
2018-06-14T23:20:34.977Z,20.16
2018-06-14T23:23:07.098Z,19.99
2018-06-14T23:25:38.122Z,19.36
2018-06-14T23:28:09.014Z,19.55
2018-06-14T23:30:39.117Z,19.76
2018-06-14T23:33:09.735Z,19.92
2018-06-14T23:35:40.289Z,19.85
2018-06-14T23:38:10.782Z,19.81
2018-06-14T23:40:41.344Z,19.24
2018-06-14T23:43:12.229Z,18.78
2018-06-14T23:45:42.549Z,18.96
2018-06-14T23:48:12.985Z,18.47
2018-06-14T23:50:42.774Z,18.42
2018-06-14T23:53:13.470Z,17.98
2018-06-14T23:55:44.084Z,17.95
2018-06-14T23:58:14.816Z,18.32
